createdAt,value
2023-03-26T00:01:23.571Z,9.10
2023-03-26T00:03:53.693Z,9.00
2023-03-26T00:06:22.993Z,9.00
2023-03-26T00:08:51.090Z,9.10
2023-03-26T00:11:19.626Z,9.10
2023-03-26T00:16:17.390Z,9.90
2023-03-26T00:18:44.782Z,9.00
2023-03-26T00:21:14.906Z,8.90
2023-03-26T00:23:43.099Z,9.00
2023-03-26T00:28:40.424Z,9.00
2023-03-26T00:31:13.145Z,8.20
2023-03-26T00:33:41.403Z,10.00
2023-03-26T00:36:11.961Z,8.00
2023-03-26T00:41:18.036Z,9.10
2023-03-26T00:43:46.702Z,9.10
2023-03-26T00:51:15.874Z,9.10
2023-03-26T00:53:45.557Z,9.30
2023-03-26T01:01:14.814Z,9.50
2023-03-26T01:03:50.348Z,9.20
2023-03-26T01:06:28.200Z,10.60
2023-03-26T01:09:00.479Z,9.30
2023-03-26T01:11:31.311Z,9.20
2023-03-26T01:14:02.684Z,9.30
2023-03-26T01:16:41.584Z,7.90
2023-03-26T01:19:21.173Z,9.20
2023-03-26T01:27:01.186Z,10.20
2023-03-26T01:29:53.148Z,7.80
2023-03-26T01:32:44.283Z,8.10
2023-03-26T01:35:29.264Z,9.10
2023-03-26T01:38:25.537Z,10.20
2023-03-26T01:41:29.268Z,8.30
2023-03-26T01:44:28.859Z,10.00
2023-03-26T01:54:22.524Z,9.00
2023-03-26T01:56:57.078Z,9.10
2023-03-26T01:59:23.875Z,8.20
2023-03-26T02:02:14.994Z,9.10
2023-03-26T02:04:53.432Z,9.20
2023-03-26T02:08:00.177Z,9.20
2023-03-26T02:10:33.697Z,9.30
2023-03-26T02:20:22.807Z,10.60
2023-03-26T02:25:21.085Z,9.30
2023-03-26T02:27:51.276Z,9.50
2023-03-26T02:30:29.718Z,8.50
2023-03-26T02:35:34.671Z,10.70
2023-03-26T02:42:58.686Z,9.40
2023-03-26T02:50:50.354Z,9.40
2023-03-26T03:04:04.174Z,9.90
2023-03-26T03:06:35.771Z,9.30
2023-03-26T03:11:38.910Z,9.40
2023-03-26T03:16:34.521Z,10.70
2023-03-26T03:42:02.761Z,10.50
2023-03-26T03:49:24.779Z,10.80
2023-03-26T03:51:52.002Z,9.00
2023-03-26T03:54:34.181Z,10.40
2023-03-26T04:05:03.212Z,9.40
2023-03-26T04:07:31.213Z,9.40
2023-03-26T04:10:09.132Z,8.20
2023-03-26T04:12:54.673Z,10.80
2023-03-26T04:28:08.518Z,8.20
2023-03-26T04:31:00.796Z,9.70
2023-03-26T04:36:05.361Z,10.50
2023-03-26T04:38:42.097Z,9.80
2023-03-26T04:41:13.059Z,9.40
2023-03-26T04:43:56.792Z,9.60
2023-03-26T04:46:55.410Z,10.70
2023-03-26T04:49:37.915Z,10.80
2023-03-26T04:57:30.917Z,8.90
2023-03-26T05:00:15.973Z,9.50
2023-03-26T05:02:46.010Z,10.80
2023-03-26T05:07:42.283Z,8.40
2023-03-26T05:10:15.145Z,8.50
2023-03-26T05:20:30.454Z,9.50
2023-03-26T05:36:03.445Z,9.40
2023-03-26T05:38:32.176Z,10.80
2023-03-26T05:41:01.960Z,8.80
2023-03-26T05:53:43.297Z,10.10
2023-03-26T06:12:32.126Z,9.30
2023-03-26T06:20:17.964Z,9.00
2023-03-26T06:25:24.533Z,10.20
2023-03-26T06:38:31.346Z,10.80
2023-03-26T06:41:05.590Z,9.50
2023-03-26T06:46:38.581Z,9.10
2023-03-26T06:49:45.437Z,8.10
2023-03-26T06:52:19.684Z,9.60
2023-03-26T06:55:22.508Z,10.40
2023-03-26T07:22:48.346Z,10.00
2023-03-26T07:25:18.679Z,10.00
2023-03-26T07:28:34.089Z,8.90
2023-03-26T07:31:30.641Z,8.70
2023-03-26T07:34:46.163Z,8.60
2023-03-26T07:40:31.939Z,11.20
2023-03-26T07:43:26.352Z,10.30
2023-03-26T07:46:24.169Z,10.30
2023-03-26T07:49:12.712Z,10.40
2023-03-26T07:52:01.263Z,9.10
2023-03-26T07:58:02.641Z,10.60
2023-03-26T08:00:56.481Z,10.50
2023-03-26T08:03:31.572Z,10.50
2023-03-26T08:06:36.313Z,10.60
2023-03-26T08:09:40.478Z,10.60
2023-03-26T08:12:50.510Z,11.90
2023-03-26T08:15:45.749Z,12.00
2023-03-26T08:18:31.212Z,10.80
2023-03-26T08:23:50.448Z,11.80
2023-03-26T08:26:30.621Z,9.60
2023-03-26T08:29:08.647Z,10.20
2023-03-26T08:31:39.001Z,10.90
2023-03-26T08:34:09.455Z,10.60
2023-03-26T08:39:05.615Z,12.10
2023-03-26T08:41:38.451Z,11.00
2023-03-26T08:44:49.050Z,11.20
2023-03-26T08:47:55.642Z,9.80
2023-03-26T08:50:31.414Z,10.30
2023-03-26T08:55:46.097Z,10.90
2023-03-26T08:58:43.514Z,10.80
2023-03-26T09:01:41.488Z,10.60
2023-03-26T09:04:20.323Z,9.90
2023-03-26T09:07:24.576Z,11.30
2023-03-26T09:12:25.722Z,11.90
2023-03-26T09:15:20.348Z,11.60
2023-03-26T09:18:23.884Z,10.90
2023-03-26T09:21:09.313Z,11.10
2023-03-26T09:23:45.761Z,11.00
2023-03-26T09:26:36.447Z,11.80
2023-03-26T09:29:06.139Z,12.20
2023-03-26T09:32:11.831Z,11.00
2023-03-26T09:34:44.326Z,12.30
2023-03-26T09:37:24.155Z,11.30
2023-03-26T09:42:30.846Z,12.30
2023-03-26T09:45:25.600Z,10.80
2023-03-26T09:48:01.216Z,10.90
2023-03-26T09:50:56.339Z,10.70
2023-03-26T09:53:42.085Z,13.00
2023-03-26T09:56:39.924Z,10.60
2023-03-26T09:59:27.259Z,10.50
2023-03-26T10:01:59.820Z,10.50
2023-03-26T10:04:51.313Z,10.50
2023-03-26T10:07:35.916Z,9.10
2023-03-26T10:10:23.424Z,9.50
2023-03-26T10:13:39.021Z,9.10
2023-03-26T10:16:39.478Z,11.50
2023-03-26T10:19:19.863Z,9.70
2023-03-26T10:22:20.087Z,10.20
2023-03-26T10:25:05.796Z,9.00
2023-03-26T10:28:02.232Z,9.80
2023-03-26T10:30:51.016Z,9.30
2023-03-26T10:33:34.943Z,9.80
2023-03-26T10:36:13.427Z,9.70
2023-03-26T10:39:01.498Z,9.80
2023-03-26T10:41:38.694Z,8.50
2023-03-26T10:44:44.948Z,9.70
2023-03-26T10:47:35.102Z,9.20
2023-03-26T10:50:23.093Z,9.80
2023-03-26T10:53:02.308Z,9.80
2023-03-26T10:55:34.151Z,9.70
2023-03-26T10:58:24.992Z,10.10
2023-03-26T11:01:01.824Z,9.80
2023-03-26T11:03:54.247Z,8.60
2023-03-26T11:06:26.910Z,11.20
2023-03-26T11:09:01.905Z,9.80
2023-03-26T11:12:27.168Z,9.10
2023-03-26T11:15:07.560Z,9.90
2023-03-26T11:17:46.429Z,10.70
2023-03-26T11:20:35.201Z,9.90
2023-03-26T11:23:19.984Z,10.30
2023-03-26T11:26:23.751Z,8.80
2023-03-26T11:29:32.590Z,11.30
2023-03-26T11:32:10.697Z,8.90
2023-03-26T11:34:46.995Z,9.10
2023-03-26T11:37:39.935Z,10.30
2023-03-26T11:40:24.070Z,9.00
2023-03-26T11:42:56.812Z,10.30
2023-03-26T11:45:27.310Z,11.20
2023-03-26T11:48:02.252Z,10.30
2023-03-26T11:50:32.913Z,11.30
2023-03-26T11:53:10.500Z,10.30
2023-03-26T11:55:41.885Z,10.40
2023-03-26T11:58:26.054Z,10.40
2023-03-26T12:00:54.721Z,10.40
2023-03-26T12:05:53.588Z,10.60
2023-03-26T12:08:37.877Z,11.70
2023-03-26T12:11:11.654Z,10.30
2023-03-26T12:13:44.790Z,10.10
2023-03-26T12:16:15.510Z,10.20
2023-03-26T12:18:44.588Z,10.30
2023-03-26T12:21:19.678Z,10.20
2023-03-26T12:23:58.587Z,10.30
2023-03-26T12:26:48.975Z,11.60
2023-03-26T12:29:18.744Z,10.30
2023-03-26T12:31:54.302Z,10.50
2023-03-26T12:34:23.932Z,10.80
2023-03-26T12:36:56.655Z,13.40
2023-03-26T12:40:09.351Z,10.60
2023-03-26T12:44:50.125Z,11.00
2023-03-26T12:51:02.048Z,10.20
2023-03-26T12:54:06.120Z,11.90
2023-03-26T12:57:11.841Z,12.10
2023-03-26T13:00:10.756Z,12.20
2023-03-26T13:03:15.319Z,12.30
2023-03-26T13:05:55.805Z,12.30
2023-03-26T13:08:31.108Z,12.50
2023-03-26T13:11:35.106Z,13.90
2023-03-26T13:14:08.497Z,13.60
2023-03-26T13:19:17.325Z,12.70
2023-03-26T13:22:13.704Z,13.80
2023-03-26T13:25:15.483Z,12.80
2023-03-26T13:28:08.002Z,14.00
2023-03-26T13:30:46.478Z,12.90
2023-03-26T13:36:23.965Z,13.40
2023-03-26T13:39:08.080Z,14.30
2023-03-26T13:41:47.170Z,14.20
2023-03-26T13:44:19.734Z,13.40
2023-03-26T13:46:51.956Z,12.70
2023-03-26T13:49:40.732Z,12.70
2023-03-26T13:52:34.642Z,14.00
2023-03-26T13:55:25.741Z,12.80
2023-03-26T13:58:06.099Z,12.90
2023-03-26T14:01:12.369Z,12.80
2023-03-26T14:04:16.001Z,12.80
2023-03-26T14:06:57.449Z,14.20
2023-03-26T14:14:27.718Z,13.30
2023-03-26T14:16:59.919Z,13.10
2023-03-26T14:19:51.469Z,11.70
2023-03-26T14:22:56.576Z,11.60
2023-03-26T14:26:01.139Z,13.90
2023-03-26T14:28:34.176Z,11.70
2023-03-26T14:33:53.782Z,13.70
2023-03-26T14:36:48.180Z,11.00
2023-03-26T14:41:56.554Z,11.70
2023-03-26T14:44:51.213Z,11.90
2023-03-26T14:47:21.726Z,11.90
2023-03-26T14:52:29.369Z,11.90
2023-03-26T14:55:01.576Z,11.80
2023-03-26T14:58:05.941Z,11.90
2023-03-26T15:00:50.962Z,12.20
2023-03-26T15:03:56.076Z,12.10
2023-03-26T15:06:34.739Z,13.10
2023-03-26T15:09:19.638Z,11.70
2023-03-26T15:14:31.820Z,13.50
2023-03-26T15:17:04.555Z,12.70
2023-03-26T15:20:26.070Z,12.60
2023-03-26T15:23:14.617Z,13.70
2023-03-26T15:26:18.855Z,12.70
2023-03-26T15:28:54.682Z,13.00
2023-03-26T15:31:47.572Z,14.50
2023-03-26T15:34:30.430Z,14.20
2023-03-26T15:37:35.492Z,12.20
2023-03-26T15:40:30.713Z,12.00
2023-03-26T15:43:14.112Z,12.60
2023-03-26T15:45:48.053Z,12.90
2023-03-26T15:48:43.615Z,12.80
2023-03-26T15:51:29.406Z,13.10
2023-03-26T15:56:44.021Z,11.10
2023-03-26T16:02:04.482Z,11.20
2023-03-26T16:04:50.415Z,12.90
2023-03-26T16:07:30.374Z,11.60
2023-03-26T16:10:28.463Z,11.50
2023-03-26T16:13:19.397Z,11.50
2023-03-26T16:16:11.503Z,11.30
2023-03-26T16:19:19.338Z,12.40
2023-03-26T16:21:57.680Z,10.70
2023-03-26T16:24:31.309Z,9.60
2023-03-26T16:27:15.230Z,10.50
2023-03-26T16:30:00.185Z,9.00
2023-03-26T16:32:30.970Z,11.30
2023-03-26T16:35:01.994Z,10.30
2023-03-26T16:37:42.868Z,10.10
2023-03-26T16:40:27.094Z,11.20
2023-03-26T16:43:10.336Z,10.00
2023-03-26T16:45:52.929Z,10.10
2023-03-26T16:48:39.124Z,10.10
2023-03-26T16:51:27.574Z,8.80
2023-03-26T16:54:04.287Z,8.80
2023-03-26T16:56:42.382Z,10.10
2023-03-26T16:59:41.556Z,9.60
2023-03-26T17:02:52.217Z,9.80
2023-03-26T17:05:21.218Z,9.90
2023-03-26T17:08:09.885Z,10.20
2023-03-26T17:13:31.054Z,10.90
2023-03-26T17:15:57.823Z,11.50
2023-03-26T17:18:56.416Z,10.10
2023-03-26T17:21:54.093Z,10.50
2023-03-26T17:24:27.801Z,9.20
2023-03-26T17:27:35.926Z,8.40
2023-03-26T17:30:40.215Z,8.00
2023-03-26T17:33:29.413Z,9.40
2023-03-26T17:36:11.506Z,8.10
2023-03-26T17:41:15.858Z,7.80
2023-03-26T17:43:51.305Z,8.10
2023-03-26T17:46:41.286Z,8.80
2023-03-26T17:49:24.551Z,8.70
2023-03-26T17:52:18.199Z,8.70
2023-03-26T17:54:50.471Z,8.20
2023-03-26T17:57:54.277Z,8.50
2023-03-26T18:00:31.660Z,7.20
2023-03-26T18:03:11.351Z,8.60
2023-03-26T18:05:39.481Z,8.80
2023-03-26T18:08:19.602Z,9.80
2023-03-26T18:11:31.130Z,8.40
2023-03-26T18:14:41.212Z,7.00
2023-03-26T18:19:53.245Z,6.90
2023-03-26T18:22:25.269Z,7.90
2023-03-26T18:24:56.131Z,7.80
2023-03-26T18:29:56.960Z,7.60
2023-03-26T18:32:33.713Z,7.60
2023-03-26T18:35:22.225Z,7.80
2023-03-26T18:37:53.363Z,7.60
2023-03-26T18:40:22.572Z,8.40
2023-03-26T18:42:52.426Z,7.60
2023-03-26T18:45:38.988Z,7.80
2023-03-26T18:48:14.190Z,7.70
2023-03-26T18:50:42.170Z,7.80
2023-03-26T18:53:22.217Z,7.80
2023-03-26T18:55:50.769Z,9.20
2023-03-26T18:58:39.398Z,7.70
2023-03-26T19:01:20.004Z,7.80
2023-03-26T19:06:16.575Z,6.40
2023-03-26T19:08:45.692Z,7.70
2023-03-26T19:11:17.072Z,7.60
2023-03-26T19:16:35.330Z,6.30
2023-03-26T19:19:07.462Z,6.70
2023-03-26T19:21:35.697Z,6.00
2023-03-26T19:24:04.406Z,7.30
2023-03-26T19:31:38.773Z,7.20
2023-03-26T19:34:26.163Z,7.90
2023-03-26T19:37:01.402Z,8.30
2023-03-26T19:39:45.435Z,8.20
2023-03-26T19:42:42.932Z,5.60
2023-03-26T19:45:22.990Z,8.00
2023-03-26T19:48:03.671Z,6.70
2023-03-26T19:50:42.563Z,6.70
2023-03-26T19:53:32.501Z,5.40
2023-03-26T19:56:13.391Z,6.50
2023-03-26T20:01:18.995Z,6.50
2023-03-26T20:03:49.645Z,7.80
2023-03-26T20:06:19.458Z,6.40
2023-03-26T20:08:50.461Z,6.30
2023-03-26T20:11:24.786Z,5.30
2023-03-26T20:16:29.038Z,7.50
2023-03-26T20:21:25.853Z,6.30
2023-03-26T20:26:22.072Z,6.30
2023-03-26T20:31:22.826Z,6.30
2023-03-26T20:33:51.769Z,6.30
2023-03-26T20:39:06.049Z,6.40
2023-03-26T20:41:34.341Z,6.40
2023-03-26T20:44:03.599Z,7.10
2023-03-26T20:51:28.609Z,6.50
2023-03-26T21:11:53.715Z,6.10
2023-03-26T21:14:27.721Z,7.40
2023-03-26T21:22:11.373Z,4.80
2023-03-26T21:24:59.104Z,6.00
2023-03-26T21:27:37.844Z,6.40
2023-03-26T21:30:13.888Z,5.80
2023-03-26T21:40:16.550Z,5.60
2023-03-26T21:42:45.535Z,5.60
2023-03-26T21:47:42.025Z,5.50
2023-03-26T21:50:11.289Z,5.50
2023-03-26T21:52:46.996Z,5.10
2023-03-26T21:55:20.196Z,5.40
2023-03-26T21:58:13.048Z,5.30
2023-03-26T22:01:13.025Z,5.30
2023-03-26T22:04:07.532Z,6.20
2023-03-26T22:06:43.656Z,5.20
2023-03-26T22:09:12.794Z,4.50
2023-03-26T22:11:41.465Z,5.40
2023-03-26T22:14:08.636Z,6.30
2023-03-26T22:23:57.878Z,6.60
2023-03-26T22:26:24.973Z,6.10
2023-03-26T22:28:52.190Z,6.30
2023-03-26T22:38:54.261Z,5.60
2023-03-26T22:41:22.171Z,5.60
2023-03-26T22:46:20.638Z,5.50
2023-03-26T22:56:14.408Z,5.20
2023-03-26T22:58:41.378Z,4.20
2023-03-26T23:03:37.135Z,5.40
2023-03-26T23:06:07.753Z,5.40
2023-03-26T23:08:36.457Z,5.30
2023-03-26T23:11:08.657Z,6.50
2023-03-26T23:18:31.811Z,6.10
2023-03-26T23:23:28.790Z,5.10
2023-03-26T23:26:04.658Z,5.00
2023-03-26T23:28:33.391Z,4.90
2023-03-26T23:31:02.902Z,4.90
2023-03-26T23:33:32.042Z,4.90
2023-03-26T23:38:43.688Z,5.30
2023-03-26T23:46:24.431Z,6.00
2023-03-26T23:51:20.962Z,3.40
2023-03-26T23:53:49.212Z,5.20
2023-03-26T23:58:43.656Z,4.80
